sensor_id;sensor_type;location;lat;lon;timestamp;P1;durP1;ratioP1;P2;durP2;ratioP2
17570;SDS011;8903;52.220;20.978;2023-09-19T00:02:04;15.17;;;13.10;;
17570;SDS011;8903;52.220;20.978;2023-09-19T00:04:34;16.37;;;12.10;;
17570;SDS011;8903;52.220;20.978;2023-09-19T00:07:04;13.10;;;11.77;;
17570;SDS011;8903;52.220;20.978;2023-09-19T00:09:31;14.03;;;12.17;;
17570;SDS011;8903;52.220;20.978;2023-09-19T00:12:02;14.37;;;12.47;;
17570;SDS011;8903;52.220;20.978;2023-09-19T00:14:30;15.23;;;13.60;;
17570;SDS011;8903;52.220;20.978;2023-09-19T00:16:59;12.80;;;11.23;;
17570;SDS011;8903;52.220;20.978;2023-09-19T00:19:31;15.30;;;12.43;;
17570;SDS011;8903;52.220;20.978;2023-09-19T00:22:00;15.10;;;12.40;;
17570;SDS011;8903;52.220;20.978;2023-09-19T00:24:27;12.60;;;11.30;;
17570;SDS011;8903;52.220;20.978;2023-09-19T00:26:54;13.93;;;12.40;;
17570;SDS011;8903;52.220;20.978;2023-09-19T00:29:24;15.80;;;12.40;;
17570;SDS011;8903;52.220;20.978;2023-09-19T00:31:54;14.00;;;11.97;;
17570;SDS011;8903;52.220;20.978;2023-09-19T00:34:23;16.07;;;12.10;;
17570;SDS011;8903;52.220;20.978;2023-09-19T00:36:50;14.40;;;12.47;;
17570;SDS011;8903;52.220;20.978;2023-09-19T00:39:20;13.47;;;12.17;;
17570;SDS011;8903;52.220;20.978;2023-09-19T00:41:47;13.80;;;12.40;;
17570;SDS011;8903;52.220;20.978;2023-09-19T00:44:15;17.00;;;12.63;;
17570;SDS011;8903;52.220;20.978;2023-09-19T00:46:43;13.37;;;11.63;;
17570;SDS011;8903;52.220;20.978;2023-09-19T00:49:13;13.83;;;12.30;;
17570;SDS011;8903;52.220;20.978;2023-09-19T00:51:41;18.07;;;13.37;;
17570;SDS011;8903;52.220;20.978;2023-09-19T00:54:12;16.50;;;13.40;;
17570;SDS011;8903;52.220;20.978;2023-09-19T00:56:44;16.37;;;13.00;;
17570;SDS011;8903;52.220;20.978;2023-09-19T00:59:14;15.67;;;14.07;;
17570;SDS011;8903;52.220;20.978;2023-09-19T01:01:41;16.20;;;13.00;;
17570;SDS011;8903;52.220;20.978;2023-09-19T01:04:11;14.13;;;12.13;;
17570;SDS011;8903;52.220;20.978;2023-09-19T01:06:38;14.30;;;12.67;;
17570;SDS011;8903;52.220;20.978;2023-09-19T01:09:06;13.93;;;12.53;;
17570;SDS011;8903;52.220;20.978;2023-09-19T01:11:35;16.00;;;13.37;;
17570;SDS011;8903;52.220;20.978;2023-09-19T01:14:12;22.30;;;14.60;;
17570;SDS011;8903;52.220;20.978;2023-09-19T01:16:48;13.90;;;12.50;;
17570;SDS011;8903;52.220;20.978;2023-09-19T01:19:32;16.40;;;13.10;;
17570;SDS011;8903;52.220;20.978;2023-09-19T01:22:26;21.03;;;13.77;;
17570;SDS011;8903;52.220;20.978;2023-09-19T01:25:16;15.37;;;13.80;;
17570;SDS011;8903;52.220;20.978;2023-09-19T01:30:51;14.87;;;13.17;;
17570;SDS011;8903;52.220;20.978;2023-09-19T01:33:23;16.70;;;12.67;;
17570;SDS011;8903;52.220;20.978;2023-09-19T01:35:51;15.00;;;13.37;;
17570;SDS011;8903;52.220;20.978;2023-09-19T01:38:22;16.90;;;13.03;;
17570;SDS011;8903;52.220;20.978;2023-09-19T01:40:51;17.50;;;15.70;;
17570;SDS011;8903;52.220;20.978;2023-09-19T01:43:31;15.13;;;13.53;;
17570;SDS011;8903;52.220;20.978;2023-09-19T01:46:08;14.93;;;13.30;;
17570;SDS011;8903;52.220;20.978;2023-09-19T01:48:40;14.17;;;12.23;;
17570;SDS011;8903;52.220;20.978;2023-09-19T01:51:13;20.90;;;14.50;;
17570;SDS011;8903;52.220;20.978;2023-09-19T01:53:48;15.17;;;13.60;;
17570;SDS011;8903;52.220;20.978;2023-09-19T01:56:21;15.77;;;12.87;;
17570;SDS011;8903;52.220;20.978;2023-09-19T01:58:53;14.87;;;13.33;;
17570;SDS011;8903;52.220;20.978;2023-09-19T02:01:27;17.43;;;12.53;;
17570;SDS011;8903;52.220;20.978;2023-09-19T02:03:55;14.30;;;12.80;;
17570;SDS011;8903;52.220;20.978;2023-09-19T02:06:22;16.40;;;12.80;;
17570;SDS011;8903;52.220;20.978;2023-09-19T02:08:52;14.70;;;12.93;;
17570;SDS011;8903;52.220;20.978;2023-09-19T02:11:20;13.37;;;11.97;;
17570;SDS011;8903;52.220;20.978;2023-09-19T02:13:47;13.60;;;12.00;;
17570;SDS011;8903;52.220;20.978;2023-09-19T02:16:18;15.60;;;13.73;;
17570;SDS011;8903;52.220;20.978;2023-09-19T02:18:47;20.43;;;14.77;;
17570;SDS011;8903;52.220;20.978;2023-09-19T02:21:14;14.20;;;12.70;;
17570;SDS011;8903;52.220;20.978;2023-09-19T02:23:43;15.50;;;13.13;;
17570;SDS011;8903;52.220;20.978;2023-09-19T02:26:12;14.57;;;13.07;;
17570;SDS011;8903;52.220;20.978;2023-09-19T02:28:40;16.20;;;13.20;;
17570;SDS011;8903;52.220;20.978;2023-09-19T02:31:08;15.53;;;13.00;;
17570;SDS011;8903;52.220;20.978;2023-09-19T02:33:36;18.50;;;13.40;;
17570;SDS011;8903;52.220;20.978;2023-09-19T02:36:04;15.50;;;13.17;;
17570;SDS011;8903;52.220;20.978;2023-09-19T02:38:32;14.80;;;13.10;;
17570;SDS011;8903;52.220;20.978;2023-09-19T02:40:59;17.00;;;12.90;;
17570;SDS011;8903;52.220;20.978;2023-09-19T02:43:27;15.13;;;13.07;;
17570;SDS011;8903;52.220;20.978;2023-09-19T02:45:54;14.00;;;12.50;;
17570;SDS011;8903;52.220;20.978;2023-09-19T02:48:22;16.17;;;13.57;;
17570;SDS011;8903;52.220;20.978;2023-09-19T02:50:50;15.80;;;13.00;;
17570;SDS011;8903;52.220;20.978;2023-09-19T02:53:19;14.50;;;12.93;;
17570;SDS011;8903;52.220;20.978;2023-09-19T02:55:46;17.03;;;14.07;;
17570;SDS011;8903;52.220;20.978;2023-09-19T02:58:13;13.90;;;12.50;;
17570;SDS011;8903;52.220;20.978;2023-09-19T03:00:40;17.10;;;14.53;;
17570;SDS011;8903;52.220;20.978;2023-09-19T03:03:08;16.10;;;14.40;;
17570;SDS011;8903;52.220;20.978;2023-09-19T03:05:35;16.87;;;13.40;;
17570;SDS011;8903;52.220;20.978;2023-09-19T03:08:03;15.50;;;13.70;;
17570;SDS011;8903;52.220;20.978;2023-09-19T03:10:33;16.43;;;13.53;;
17570;SDS011;8903;52.220;20.978;2023-09-19T03:13:02;14.70;;;13.20;;
17570;SDS011;8903;52.220;20.978;2023-09-19T03:15:30;14.77;;;12.63;;
17570;SDS011;8903;52.220;20.978;2023-09-19T03:17:57;13.87;;;12.47;;
17570;SDS011;8903;52.220;20.978;2023-09-19T03:20:25;17.80;;;13.70;;
17570;SDS011;8903;52.220;20.978;2023-09-19T03:22:53;16.50;;;13.87;;
17570;SDS011;8903;52.220;20.978;2023-09-19T03:25:21;14.93;;;13.40;;
17570;SDS011;8903;52.220;20.978;2023-09-19T03:27:51;15.10;;;13.10;;
17570;SDS011;8903;52.220;20.978;2023-09-19T03:30:20;15.80;;;14.00;;
17570;SDS011;8903;52.220;20.978;2023-09-19T03:32:47;16.03;;;14.13;;
17570;SDS011;8903;52.220;20.978;2023-09-19T03:35:16;16.90;;;13.23;;
17570;SDS011;8903;52.220;20.978;2023-09-19T03:37:44;14.40;;;12.33;;
17570;SDS011;8903;52.220;20.978;2023-09-19T03:40:12;14.90;;;13.30;;
17570;SDS011;8903;52.220;20.978;2023-09-19T03:42:39;16.13;;;13.63;;
17570;SDS011;8903;52.220;20.978;2023-09-19T03:45:12;15.50;;;13.37;;
17570;SDS011;8903;52.220;20.978;2023-09-19T03:47:46;14.10;;;12.70;;
17570;SDS011;8903;52.220;20.978;2023-09-19T03:50:15;14.10;;;12.60;;
17570;SDS011;8903;52.220;20.978;2023-09-19T03:52:43;15.67;;;14.03;;
17570;SDS011;8903;52.220;20.978;2023-09-19T03:55:10;15.50;;;13.87;;
17570;SDS011;8903;52.220;20.978;2023-09-19T03:57:38;16.73;;;12.90;;
17570;SDS011;8903;52.220;20.978;2023-09-19T04:00:05;16.83;;;13.77;;
17570;SDS011;8903;52.220;20.978;2023-09-19T04:02:41;15.67;;;13.70;;
17570;SDS011;8903;52.220;20.978;2023-09-19T04:05:08;17.60;;;14.20;;
17570;SDS011;8903;52.220;20.978;2023-09-19T04:07:36;15.83;;;14.13;;
17570;SDS011;8903;52.220;20.978;2023-09-19T04:10:03;15.73;;;13.73;;
17570;SDS011;8903;52.220;20.978;2023-09-19T04:12:31;15.90;;;14.30;;
17570;SDS011;8903;52.220;20.978;2023-09-19T04:14:58;13.80;;;12.27;;
17570;SDS011;8903;52.220;20.978;2023-09-19T04:17:25;17.60;;;14.53;;
17570;SDS011;8903;52.220;20.978;2023-09-19T04:19:53;15.30;;;13.63;;
17570;SDS011;8903;52.220;20.978;2023-09-19T04:22:20;18.50;;;13.47;;
17570;SDS011;8903;52.220;20.978;2023-09-19T04:24:47;16.17;;;13.10;;
17570;SDS011;8903;52.220;20.978;2023-09-19T04:27:14;18.17;;;14.87;;
17570;SDS011;8903;52.220;20.978;2023-09-19T04:29:41;17.93;;;14.83;;
17570;SDS011;8903;52.220;20.978;2023-09-19T04:32:08;15.23;;;13.07;;
17570;SDS011;8903;52.220;20.978;2023-09-19T04:34:35;18.70;;;15.10;;
17570;SDS011;8903;52.220;20.978;2023-09-19T04:37:04;18.37;;;13.13;;
17570;SDS011;8903;52.220;20.978;2023-09-19T04:39:31;17.57;;;13.90;;
17570;SDS011;8903;52.220;20.978;2023-09-19T04:41:59;15.93;;;13.20;;
17570;SDS011;8903;52.220;20.978;2023-09-19T04:44:26;16.07;;;14.37;;
17570;SDS011;8903;52.220;20.978;2023-09-19T04:46:53;16.90;;;13.60;;
17570;SDS011;8903;52.220;20.978;2023-09-19T04:49:20;15.10;;;13.50;;
17570;SDS011;8903;52.220;20.978;2023-09-19T04:51:47;14.90;;;13.23;;
17570;SDS011;8903;52.220;20.978;2023-09-19T04:54:16;18.30;;;15.43;;
17570;SDS011;8903;52.220;20.978;2023-09-19T04:56:43;15.27;;;13.63;;
17570;SDS011;8903;52.220;20.978;2023-09-19T04:59:10;14.97;;;12.60;;
17570;SDS011;8903;52.220;20.978;2023-09-19T05:01:37;35.90;;;16.53;;
17570;SDS011;8903;52.220;20.978;2023-09-19T05:04:04;17.60;;;14.30;;
17570;SDS011;8903;52.220;20.978;2023-09-19T05:06:31;14.47;;;12.30;;
17570;SDS011;8903;52.220;20.978;2023-09-19T05:09:00;15.03;;;13.43;;
17570;SDS011;8903;52.220;20.978;2023-09-19T05:11:31;17.17;;;13.10;;
17570;SDS011;8903;52.220;20.978;2023-09-19T05:13:59;19.40;;;13.73;;
17570;SDS011;8903;52.220;20.978;2023-09-19T05:16:29;14.27;;;12.87;;
17570;SDS011;8903;52.220;20.978;2023-09-19T05:18:56;14.53;;;13.00;;
17570;SDS011;8903;52.220;20.978;2023-09-19T05:21:25;21.50;;;12.90;;
17570;SDS011;8903;52.220;20.978;2023-09-19T05:23:54;16.73;;;12.77;;
17570;SDS011;8903;52.220;20.978;2023-09-19T05:26:21;32.53;;;14.50;;
17570;SDS011;8903;52.220;20.978;2023-09-19T05:28:49;14.20;;;12.70;;
17570;SDS011;8903;52.220;20.978;2023-09-19T05:31:18;13.73;;;11.37;;
17570;SDS011;8903;52.220;20.978;2023-09-19T05:33:45;18.23;;;12.80;;
17570;SDS011;8903;52.220;20.978;2023-09-19T05:36:12;14.87;;;13.27;;
17570;SDS011;8903;52.220;20.978;2023-09-19T05:38:41;17.83;;;12.70;;
17570;SDS011;8903;52.220;20.978;2023-09-19T05:41:09;16.07;;;13.50;;
17570;SDS011;8903;52.220;20.978;2023-09-19T05:43:38;38.07;;;14.17;;
17570;SDS011;8903;52.220;20.978;2023-09-19T05:46:10;14.10;;;12.60;;
17570;SDS011;8903;52.220;20.978;2023-09-19T05:48:37;19.93;;;12.73;;
17570;SDS011;8903;52.220;20.978;2023-09-19T05:51:06;61.63;;;15.30;;
17570;SDS011;8903;52.220;20.978;2023-09-19T05:53:35;18.03;;;12.53;;
17570;SDS011;8903;52.220;20.978;2023-09-19T05:56:02;78.27;;;20.90;;
17570;SDS011;8903;52.220;20.978;2023-09-19T05:58:29;27.63;;;16.73;;
17570;SDS011;8903;52.220;20.978;2023-09-19T06:00:56;23.97;;;13.00;;
17570;SDS011;8903;52.220;20.978;2023-09-19T06:03:25;24.63;;;15.90;;
17570;SDS011;8903;52.220;20.978;2023-09-19T06:05:52;13.83;;;12.43;;
17570;SDS011;8903;52.220;20.978;2023-09-19T06:08:22;47.43;;;17.47;;
17570;SDS011;8903;52.220;20.978;2023-09-19T06:10:51;27.93;;;12.80;;
17570;SDS011;8903;52.220;20.978;2023-09-19T06:13:18;13.47;;;12.10;;
17570;SDS011;8903;52.220;20.978;2023-09-19T06:15:45;17.10;;;12.40;;
17570;SDS011;8903;52.220;20.978;2023-09-19T06:18:13;26.97;;;13.83;;
17570;SDS011;8903;52.220;20.978;2023-09-19T06:20:45;21.50;;;13.10;;
17570;SDS011;8903;52.220;20.978;2023-09-19T06:23:13;14.23;;;12.00;;
17570;SDS011;8903;52.220;20.978;2023-09-19T06:25:40;14.77;;;12.90;;
17570;SDS011;8903;52.220;20.978;2023-09-19T06:28:08;15.57;;;12.83;;
17570;SDS011;8903;52.220;20.978;2023-09-19T06:30:37;14.77;;;13.20;;
17570;SDS011;8903;52.220;20.978;2023-09-19T06:33:06;15.30;;;11.67;;
17570;SDS011;8903;52.220;20.978;2023-09-19T06:35:33;13.70;;;12.30;;
17570;SDS011;8903;52.220;20.978;2023-09-19T06:38:03;16.80;;;12.87;;
17570;SDS011;8903;52.220;20.978;2023-09-19T06:40:31;64.73;;;15.70;;
17570;SDS011;8903;52.220;20.978;2023-09-19T06:42:57;15.20;;;12.13;;
17570;SDS011;8903;52.220;20.978;2023-09-19T06:45:27;15.53;;;12.17;;
17570;SDS011;8903;52.220;20.978;2023-09-19T06:47:54;18.57;;;13.17;;
17570;SDS011;8903;52.220;20.978;2023-09-19T06:50:23;18.47;;;12.33;;
17570;SDS011;8903;52.220;20.978;2023-09-19T06:52:50;101.17;;;28.00;;
17570;SDS011;8903;52.220;20.978;2023-09-19T06:55:21;42.60;;;16.40;;
17570;SDS011;8903;52.220;20.978;2023-09-19T06:57:50;16.20;;;12.80;;
17570;SDS011;8903;52.220;20.978;2023-09-19T07:00:19;33.60;;;14.20;;
17570;SDS011;8903;52.220;20.978;2023-09-19T07:02:54;17.47;;;12.20;;
17570;SDS011;8903;52.220;20.978;2023-09-19T07:05:24;20.50;;;11.50;;
17570;SDS011;8903;52.220;20.978;2023-09-19T07:07:52;16.70;;;14.97;;
17570;SDS011;8903;52.220;20.978;2023-09-19T07:10:21;17.73;;;12.80;;
17570;SDS011;8903;52.220;20.978;2023-09-19T07:12:55;13.30;;;11.70;;
17570;SDS011;8903;52.220;20.978;2023-09-19T07:15:23;15.63;;;12.77;;
17570;SDS011;8903;52.220;20.978;2023-09-19T07:17:51;16.63;;;13.33;;
17570;SDS011;8903;52.220;20.978;2023-09-19T07:20:19;14.40;;;12.97;;
17570;SDS011;8903;52.220;20.978;2023-09-19T07:22:46;19.93;;;13.37;;
17570;SDS011;8903;52.220;20.978;2023-09-19T07:25:14;12.83;;;11.53;;
17570;SDS011;8903;52.220;20.978;2023-09-19T07:27:43;15.77;;;12.43;;
17570;SDS011;8903;52.220;20.978;2023-09-19T07:30:10;15.83;;;11.80;;
17570;SDS011;8903;52.220;20.978;2023-09-19T07:32:38;38.90;;;14.67;;
17570;SDS011;8903;52.220;20.978;2023-09-19T07:35:06;18.43;;;13.67;;
17570;SDS011;8903;52.220;20.978;2023-09-19T07:37:33;28.23;;;16.20;;
17570;SDS011;8903;52.220;20.978;2023-09-19T07:40:01;16.50;;;13.17;;
17570;SDS011;8903;52.220;20.978;2023-09-19T07:42:32;20.20;;;15.40;;
17570;SDS011;8903;52.220;20.978;2023-09-19T07:45:01;21.87;;;14.93;;
17570;SDS011;8903;52.220;20.978;2023-09-19T07:47:28;15.87;;;13.43;;
17570;SDS011;8903;52.220;20.978;2023-09-19T07:49:57;21.03;;;14.87;;
17570;SDS011;8903;52.220;20.978;2023-09-19T07:52:25;17.73;;;16.03;;
17570;SDS011;8903;52.220;20.978;2023-09-19T07:54:53;84.33;;;21.17;;
17570;SDS011;8903;52.220;20.978;2023-09-19T07:57:20;28.40;;;16.30;;
17570;SDS011;8903;52.220;20.978;2023-09-19T07:59:47;16.87;;;14.57;;
17570;SDS011;8903;52.220;20.978;2023-09-19T08:02:15;17.40;;;15.60;;
17570;SDS011;8903;52.220;20.978;2023-09-19T08:04:43;25.90;;;16.80;;
17570;SDS011;8903;52.220;20.978;2023-09-19T08:07:11;55.13;;;18.97;;
17570;SDS011;8903;52.220;20.978;2023-09-19T08:09:38;37.20;;;15.20;;
17570;SDS011;8903;52.220;20.978;2023-09-19T08:12:06;19.60;;;14.77;;
17570;SDS011;8903;52.220;20.978;2023-09-19T08:14:35;19.73;;;15.80;;
17570;SDS011;8903;52.220;20.978;2023-09-19T08:17:03;54.97;;;20.53;;
17570;SDS011;8903;52.220;20.978;2023-09-19T08:19:34;17.80;;;15.03;;
17570;SDS011;8903;52.220;20.978;2023-09-19T08:22:02;19.10;;;16.63;;
17570;SDS011;8903;52.220;20.978;2023-09-19T08:24:29;18.80;;;16.77;;
17570;SDS011;8903;52.220;20.978;2023-09-19T08:26:58;22.10;;;15.80;;
17570;SDS011;8903;52.220;20.978;2023-09-19T08:29:25;17.50;;;14.80;;
17570;SDS011;8903;52.220;20.978;2023-09-19T08:31:53;16.53;;;14.93;;
17570;SDS011;8903;52.220;20.978;2023-09-19T08:34:21;15.47;;;13.87;;
17570;SDS011;8903;52.220;20.978;2023-09-19T08:36:51;14.63;;;13.00;;
17570;SDS011;8903;52.220;20.978;2023-09-19T08:39:21;14.63;;;13.10;;
17570;SDS011;8903;52.220;20.978;2023-09-19T08:41:48;16.83;;;13.40;;
17570;SDS011;8903;52.220;20.978;2023-09-19T08:44:15;13.97;;;12.47;;
17570;SDS011;8903;52.220;20.978;2023-09-19T08:46:44;14.27;;;12.77;;
17570;SDS011;8903;52.220;20.978;2023-09-19T08:49:14;19.93;;;13.63;;
17570;SDS011;8903;52.220;20.978;2023-09-19T08:51:52;14.43;;;13.03;;
17570;SDS011;8903;52.220;20.978;2023-09-19T08:54:28;16.60;;;13.90;;
17570;SDS011;8903;52.220;20.978;2023-09-19T08:57:05;16.90;;;15.10;;
17570;SDS011;8903;52.220;20.978;2023-09-19T08:59:36;17.57;;;13.97;;
17570;SDS011;8903;52.220;20.978;2023-09-19T09:02:08;15.10;;;12.53;;
17570;SDS011;8903;52.220;20.978;2023-09-19T09:04:38;41.00;;;15.90;;
17570;SDS011;8903;52.220;20.978;2023-09-19T09:07:10;17.20;;;12.67;;
17570;SDS011;8903;52.220;20.978;2023-09-19T09:09:38;16.33;;;12.07;;
17570;SDS011;8903;52.220;20.978;2023-09-19T09:12:08;15.37;;;11.60;;
17570;SDS011;8903;52.220;20.978;2023-09-19T09:14:37;9.87;;;8.83;;
17570;SDS011;8903;52.220;20.978;2023-09-19T09:17:04;11.63;;;10.27;;
17570;SDS011;8903;52.220;20.978;2023-09-19T09:19:32;12.57;;;11.40;;
17570;SDS011;8903;52.220;20.978;2023-09-19T09:22:06;13.07;;;9.50;;
17570;SDS011;8903;52.220;20.978;2023-09-19T09:24:35;13.43;;;10.70;;
17570;SDS011;8903;52.220;20.978;2023-09-19T09:27:05;16.50;;;12.00;;
17570;SDS011;8903;52.220;20.978;2023-09-19T09:29:42;16.07;;;12.30;;
17570;SDS011;8903;52.220;20.978;2023-09-19T09:32:21;21.40;;;13.30;;
17570;SDS011;8903;52.220;20.978;2023-09-19T09:34:52;20.10;;;15.63;;
17570;SDS011;8903;52.220;20.978;2023-09-19T09:37:23;18.23;;;16.10;;
17570;SDS011;8903;52.220;20.978;2023-09-19T09:39:54;20.77;;;15.40;;
17570;SDS011;8903;52.220;20.978;2023-09-19T09:42:29;19.10;;;16.60;;
17570;SDS011;8903;52.220;20.978;2023-09-19T09:45:12;26.00;;;16.93;;
17570;SDS011;8903;52.220;20.978;2023-09-19T09:47:48;27.00;;;19.13;;
17570;SDS011;8903;52.220;20.978;2023-09-19T09:50:27;23.90;;;17.63;;
17570;SDS011;8903;52.220;20.978;2023-09-19T09:53:02;34.40;;;19.60;;
17570;SDS011;8903;52.220;20.978;2023-09-19T09:55:56;24.73;;;18.80;;
17570;SDS011;8903;52.220;20.978;2023-09-19T09:58:24;21.23;;;16.80;;
17570;SDS011;8903;52.220;20.978;2023-09-19T10:00:54;23.70;;;17.93;;
17570;SDS011;8903;52.220;20.978;2023-09-19T10:03:35;33.83;;;19.80;;
17570;SDS011;8903;52.220;20.978;2023-09-19T10:06:06;28.10;;;20.40;;
17570;SDS011;8903;52.220;20.978;2023-09-19T10:09:02;36.80;;;21.20;;
17570;SDS011;8903;52.220;20.978;2023-09-19T10:11:42;32.67;;;21.63;;
17570;SDS011;8903;52.220;20.978;2023-09-19T10:14:11;38.90;;;24.27;;
17570;SDS011;8903;52.220;20.978;2023-09-19T10:16:45;34.53;;;23.40;;
17570;SDS011;8903;52.220;20.978;2023-09-19T10:19:19;38.77;;;24.03;;
17570;SDS011;8903;52.220;20.978;2023-09-19T10:21:50;34.67;;;23.50;;
17570;SDS011;8903;52.220;20.978;2023-09-19T10:24:20;38.17;;;23.60;;
17570;SDS011;8903;52.220;20.978;2023-09-19T10:26:51;34.50;;;21.97;;
17570;SDS011;8903;52.220;20.978;2023-09-19T10:29:19;32.20;;;21.67;;
17570;SDS011;8903;52.220;20.978;2023-09-19T10:31:52;39.47;;;23.97;;
17570;SDS011;8903;52.220;20.978;2023-09-19T10:34:19;113.37;;;32.80;;
17570;SDS011;8903;52.220;20.978;2023-09-19T10:36:48;52.60;;;26.37;;
17570;SDS011;8903;52.220;20.978;2023-09-19T10:39:17;48.40;;;24.20;;
17570;SDS011;8903;52.220;20.978;2023-09-19T10:41:47;36.07;;;21.90;;
17570;SDS011;8903;52.220;20.978;2023-09-19T10:44:23;34.47;;;22.40;;
17570;SDS011;8903;52.220;20.978;2023-09-19T10:46:51;25.67;;;18.50;;
17570;SDS011;8903;52.220;20.978;2023-09-19T10:49:19;28.50;;;20.60;;
17570;SDS011;8903;52.220;20.978;2023-09-19T10:51:46;17.80;;;14.17;;
17570;SDS011;8903;52.220;20.978;2023-09-19T10:54:17;21.40;;;14.43;;
17570;SDS011;8903;52.220;20.978;2023-09-19T10:56:49;21.73;;;16.10;;
17570;SDS011;8903;52.220;20.978;2023-09-19T10:59:17;19.10;;;12.93;;
17570;SDS011;8903;52.220;20.978;2023-09-19T11:01:47;35.67;;;19.43;;
17570;SDS011;8903;52.220;20.978;2023-09-19T11:07:05;22.90;;;14.60;;
17570;SDS011;8903;52.220;20.978;2023-09-19T11:09:48;19.87;;;14.30;;
17570;SDS011;8903;52.220;20.978;2023-09-19T11:18:55;21.73;;;15.47;;
17570;SDS011;8903;52.220;20.978;2023-09-19T11:24:28;25.47;;;17.73;;
17570;SDS011;8903;52.220;20.978;2023-09-19T11:27:09;74.47;;;25.90;;
17570;SDS011;8903;52.220;20.978;2023-09-19T11:29:43;38.27;;;20.67;;
17570;SDS011;8903;52.220;20.978;2023-09-19T11:32:10;19.30;;;15.80;;
17570;SDS011;8903;52.220;20.978;2023-09-19T11:34:42;17.57;;;13.57;;
17570;SDS011;8903;52.220;20.978;2023-09-19T11:40:44;21.00;;;15.53;;
17570;SDS011;8903;52.220;20.978;2023-09-19T11:43:29;18.10;;;15.70;;
17570;SDS011;8903;52.220;20.978;2023-09-19T11:46:08;20.77;;;14.87;;
17570;SDS011;8903;52.220;20.978;2023-09-19T11:48:37;194.53;;;36.50;;
17570;SDS011;8903;52.220;20.978;2023-09-19T11:51:12;25.37;;;15.57;;
17570;SDS011;8903;52.220;20.978;2023-09-19T11:53:47;26.43;;;16.07;;
17570;SDS011;8903;52.220;20.978;2023-09-19T11:56:16;25.70;;;14.73;;
17570;SDS011;8903;52.220;20.978;2023-09-19T11:58:44;33.73;;;17.57;;
17570;SDS011;8903;52.220;20.978;2023-09-19T12:01:14;20.50;;;17.50;;
17570;SDS011;8903;52.220;20.978;2023-09-19T12:03:47;23.60;;;15.93;;
17570;SDS011;8903;52.220;20.978;2023-09-19T12:06:21;18.30;;;14.97;;
17570;SDS011;8903;52.220;20.978;2023-09-19T12:08:49;26.20;;;18.07;;
17570;SDS011;8903;52.220;20.978;2023-09-19T12:11:19;56.63;;;22.50;;
17570;SDS011;8903;52.220;20.978;2023-09-19T12:13:48;33.93;;;18.27;;
17570;SDS011;8903;52.220;20.978;2023-09-19T12:16:17;26.60;;;18.80;;
17570;SDS011;8903;52.220;20.978;2023-09-19T12:18:47;35.60;;;19.87;;
17570;SDS011;8903;52.220;20.978;2023-09-19T12:21:22;20.43;;;16.33;;
17570;SDS011;8903;52.220;20.978;2023-09-19T12:23:58;21.40;;;16.07;;
17570;SDS011;8903;52.220;20.978;2023-09-19T12:26:29;24.43;;;17.10;;
17570;SDS011;8903;52.220;20.978;2023-09-19T12:29:03;50.27;;;20.23;;
17570;SDS011;8903;52.220;20.978;2023-09-19T12:31:30;55.60;;;20.20;;
17570;SDS011;8903;52.220;20.978;2023-09-19T12:34:02;75.33;;;20.43;;
17570;SDS011;8903;52.220;20.978;2023-09-19T12:36:31;41.77;;;17.97;;
17570;SDS011;8903;52.220;20.978;2023-09-19T12:38:59;29.30;;;14.43;;
17570;SDS011;8903;52.220;20.978;2023-09-19T12:41:33;28.53;;;17.67;;
17570;SDS011;8903;52.220;20.978;2023-09-19T12:44:00;21.80;;;16.50;;
17570;SDS011;8903;52.220;20.978;2023-09-19T12:46:33;77.47;;;24.37;;
17570;SDS011;8903;52.220;20.978;2023-09-19T12:49:16;32.13;;;15.70;;
17570;SDS011;8903;52.220;20.978;2023-09-19T12:51:45;17.70;;;14.80;;
17570;SDS011;8903;52.220;20.978;2023-09-19T12:54:12;45.00;;;17.10;;
17570;SDS011;8903;52.220;20.978;2023-09-19T12:56:41;210.73;;;39.03;;
17570;SDS011;8903;52.220;20.978;2023-09-19T12:59:10;24.63;;;16.60;;
17570;SDS011;8903;52.220;20.978;2023-09-19T13:01:39;26.70;;;17.10;;
17570;SDS011;8903;52.220;20.978;2023-09-19T13:04:10;26.07;;;16.00;;
17570;SDS011;8903;52.220;20.978;2023-09-19T13:06:43;19.20;;;15.43;;
17570;SDS011;8903;52.220;20.978;2023-09-19T13:09:14;16.53;;;14.83;;
17570;SDS011;8903;52.220;20.978;2023-09-19T13:11:43;17.93;;;14.80;;
17570;SDS011;8903;52.220;20.978;2023-09-19T13:14:13;20.10;;;15.20;;
17570;SDS011;8903;52.220;20.978;2023-09-19T13:16:58;19.30;;;15.53;;
17570;SDS011;8903;52.220;20.978;2023-09-19T13:19:35;23.50;;;15.00;;
17570;SDS011;8903;52.220;20.978;2023-09-19T13:22:06;18.30;;;16.03;;
17570;SDS011;8903;52.220;20.978;2023-09-19T13:25:08;20.80;;;17.67;;
17570;SDS011;8903;52.220;20.978;2023-09-19T13:27:39;20.20;;;16.23;;
17570;SDS011;8903;52.220;20.978;2023-09-19T13:30:08;18.63;;;16.33;;
17570;SDS011;8903;52.220;20.978;2023-09-19T13:32:35;20.07;;;15.80;;
17570;SDS011;8903;52.220;20.978;2023-09-19T13:35:05;18.80;;;15.23;;
17570;SDS011;8903;52.220;20.978;2023-09-19T13:37:34;18.67;;;16.10;;
17570;SDS011;8903;52.220;20.978;2023-09-19T13:40:02;21.10;;;16.47;;
17570;SDS011;8903;52.220;20.978;2023-09-19T13:42:30;18.07;;;16.13;;
17570;SDS011;8903;52.220;20.978;2023-09-19T13:44:57;20.30;;;16.10;;
17570;SDS011;8903;52.220;20.978;2023-09-19T13:47:24;18.97;;;16.60;;
17570;SDS011;8903;52.220;20.978;2023-09-19T13:49:52;19.53;;;17.50;;
17570;SDS011;8903;52.220;20.978;2023-09-19T13:52:19;21.60;;;19.40;;
17570;SDS011;8903;52.220;20.978;2023-09-19T13:54:47;29.67;;;17.80;;
17570;SDS011;8903;52.220;20.978;2023-09-19T13:57:15;20.67;;;17.57;;
17570;SDS011;8903;52.220;20.978;2023-09-19T13:59:43;19.87;;;17.47;;
17570;SDS011;8903;52.220;20.978;2023-09-19T14:02:09;20.73;;;17.70;;
17570;SDS011;8903;52.220;20.978;2023-09-19T14:04:36;22.43;;;17.43;;
17570;SDS011;8903;52.220;20.978;2023-09-19T14:07:03;20.13;;;17.10;;
17570;SDS011;8903;52.220;20.978;2023-09-19T14:09:30;22.47;;;19.03;;
17570;SDS011;8903;52.220;20.978;2023-09-19T14:11:56;23.40;;;18.43;;
17570;SDS011;8903;52.220;20.978;2023-09-19T14:14:25;21.80;;;19.47;;
17570;SDS011;8903;52.220;20.978;2023-09-19T14:16:52;29.20;;;18.13;;
17570;SDS011;8903;52.220;20.978;2023-09-19T14:19:20;23.30;;;18.27;;
17570;SDS011;8903;52.220;20.978;2023-09-19T14:21:47;25.77;;;20.03;;
17570;SDS011;8903;52.220;20.978;2023-09-19T14:24:16;26.27;;;18.30;;
17570;SDS011;8903;52.220;20.978;2023-09-19T14:26:43;23.97;;;18.63;;
17570;SDS011;8903;52.220;20.978;2023-09-19T14:29:11;21.07;;;18.90;;
17570;SDS011;8903;52.220;20.978;2023-09-19T14:31:39;19.10;;;17.10;;
17570;SDS011;8903;52.220;20.978;2023-09-19T14:34:06;17.00;;;15.20;;
17570;SDS011;8903;52.220;20.978;2023-09-19T14:36:35;14.63;;;13.30;;
17570;SDS011;8903;52.220;20.978;2023-09-19T14:39:04;11.93;;;10.90;;
17570;SDS011;8903;52.220;20.978;2023-09-19T14:41:31;11.00;;;10.00;;
17570;SDS011;8903;52.220;20.978;2023-09-19T14:43:58;9.70;;;8.43;;
17570;SDS011;8903;52.220;20.978;2023-09-19T14:46:25;13.63;;;9.83;;
17570;SDS011;8903;52.220;20.978;2023-09-19T14:48:54;10.50;;;9.50;;
17570;SDS011;8903;52.220;20.978;2023-09-19T14:51:24;11.77;;;10.67;;
17570;SDS011;8903;52.220;20.978;2023-09-19T14:53:52;11.17;;;10.17;;
17570;SDS011;8903;52.220;20.978;2023-09-19T14:56:19;11.30;;;10.17;;